createdAt,value
2023-08-16T00:00:31.045Z,25.71
2023-08-16T00:02:57.781Z,25.76
2023-08-16T00:05:24.479Z,25.60
2023-08-16T00:14:00.113Z,26.39
2023-08-16T00:16:46.892Z,26.82
2023-08-16T00:19:13.582Z,27.24
2023-08-16T00:21:40.522Z,27.31
2023-08-16T00:24:07.194Z,27.34
2023-08-16T00:26:34.107Z,27.56
2023-08-16T00:29:02.320Z,27.49
2023-08-16T00:31:30.470Z,27.27
2023-08-16T00:43:42.953Z,27.74
2023-08-16T00:46:15.847Z,27.86
2023-08-16T00:52:05.994Z,27.54
2023-08-16T00:57:26.667Z,27.08
2023-08-16T00:59:55.937Z,27.48
2023-08-16T01:02:23.135Z,27.07
2023-08-16T01:04:49.728Z,26.88
2023-08-16T01:07:18.963Z,27.00
2023-08-16T01:09:45.762Z,27.28
2023-08-16T01:12:12.425Z,27.35
2023-08-16T01:14:39.023Z,27.03
2023-08-16T01:17:05.943Z,26.89
2023-08-16T01:19:32.847Z,27.19
2023-08-16T01:21:59.559Z,27.31
2023-08-16T01:24:28.625Z,27.22
2023-08-16T01:26:55.271Z,27.03
2023-08-16T01:29:21.948Z,27.15
2023-08-16T01:31:48.656Z,26.80
2023-08-16T01:34:15.388Z,26.00
2023-08-16T01:36:42.034Z,26.13
2023-08-16T01:39:09.599Z,26.36
2023-08-16T01:41:36.633Z,26.59
2023-08-16T01:44:03.263Z,26.25
2023-08-16T01:46:30.356Z,26.20
2023-08-16T01:48:57.447Z,26.21
2023-08-16T01:54:39.825Z,25.80
2023-08-16T01:57:06.795Z,25.77
2023-08-16T02:02:36.288Z,25.15
2023-08-16T02:05:03.896Z,25.17
2023-08-16T02:07:30.770Z,25.74
2023-08-16T02:09:59.408Z,25.90
2023-08-16T02:12:26.036Z,25.59
2023-08-16T02:14:53.635Z,25.81
2023-08-16T02:17:20.323Z,25.55
2023-08-16T02:19:47.211Z,24.93
2023-08-16T02:22:14.022Z,24.64
2023-08-16T02:24:40.716Z,24.44
2023-08-16T02:27:07.397Z,24.37
2023-08-16T02:29:34.292Z,24.33
2023-08-16T02:32:01.146Z,24.26
2023-08-16T02:34:27.760Z,24.26
2023-08-16T02:36:54.682Z,24.11
2023-08-16T02:39:22.025Z,24.14
2023-08-16T02:41:51.210Z,24.21
2023-08-16T02:44:18.665Z,24.01
2023-08-16T02:46:45.360Z,24.09
2023-08-16T02:49:13.052Z,23.92
2023-08-16T02:51:39.712Z,23.84
2023-08-16T02:54:06.729Z,24.00
2023-08-16T02:56:33.315Z,24.17
2023-08-16T02:58:59.980Z,24.30
2023-08-16T03:01:26.658Z,24.46
2023-08-16T03:03:53.313Z,24.09
2023-08-16T03:06:19.994Z,24.23
2023-08-16T03:08:46.998Z,24.28
2023-08-16T03:11:13.900Z,24.33
2023-08-16T03:13:40.494Z,24.27
2023-08-16T03:16:07.586Z,24.33
2023-08-16T03:18:34.466Z,24.13
2023-08-16T03:21:01.418Z,24.09
2023-08-16T03:23:27.988Z,24.08
2023-08-16T03:29:12.381Z,24.13
2023-08-16T03:31:40.142Z,23.99
2023-08-16T03:34:08.819Z,23.82
2023-08-16T03:36:38.567Z,23.81
2023-08-16T03:39:05.166Z,23.93
2023-08-16T03:41:32.075Z,24.20
2023-08-16T03:43:58.958Z,24.96
2023-08-16T03:46:25.855Z,25.30
2023-08-16T03:48:52.995Z,25.27
2023-08-16T03:51:19.991Z,25.64
2023-08-16T03:53:46.627Z,25.75
2023-08-16T03:56:13.351Z,25.54
2023-08-16T03:58:40.882Z,25.04
2023-08-16T04:01:07.444Z,24.83
2023-08-16T04:03:34.405Z,24.35
2023-08-16T04:06:01.190Z,24.25
2023-08-16T04:08:28.213Z,24.06
2023-08-16T04:10:57.341Z,24.19
2023-08-16T04:13:44.287Z,23.96
2023-08-16T04:16:31.250Z,24.05
2023-08-16T04:18:57.949Z,24.10
2023-08-16T04:21:24.619Z,24.20
2023-08-16T04:23:51.596Z,23.74
2023-08-16T04:26:18.317Z,23.49
2023-08-16T04:28:47.395Z,23.29
2023-08-16T04:31:14.350Z,23.46
2023-08-16T04:33:40.987Z,23.42
2023-08-16T04:36:09.841Z,23.53
2023-08-16T04:38:38.088Z,23.53
2023-08-16T04:41:05.423Z,23.54
2023-08-16T04:43:32.957Z,23.52
2023-08-16T04:46:03.206Z,23.69
2023-08-16T04:48:30.748Z,23.98
2023-08-16T04:50:57.676Z,24.14
2023-08-16T04:53:24.263Z,24.06
2023-08-16T04:55:51.438Z,24.06
2023-08-16T04:58:19.225Z,23.81
2023-08-16T05:00:45.805Z,24.27
2023-08-16T05:03:12.701Z,24.50
2023-08-16T05:05:40.104Z,25.22
2023-08-16T05:08:07.121Z,25.34
2023-08-16T05:10:33.953Z,25.05
2023-08-16T05:13:02.229Z,25.35
2023-08-16T05:15:29.183Z,25.38
2023-08-16T05:17:55.837Z,25.61
2023-08-16T05:20:23.285Z,25.94
2023-08-16T05:22:50.940Z,26.35
2023-08-16T05:25:17.602Z,27.71
2023-08-16T05:27:47.499Z,28.66
2023-08-16T05:30:14.835Z,29.57
2023-08-16T05:32:41.608Z,29.96
2023-08-16T05:35:08.681Z,30.42
2023-08-16T05:37:35.731Z,31.00
2023-08-16T05:40:02.704Z,31.57
2023-08-16T05:42:29.896Z,31.91
2023-08-16T05:44:56.880Z,32.97
2023-08-16T05:47:24.011Z,33.92
2023-08-16T05:49:51.008Z,34.32
2023-08-16T05:52:20.944Z,34.84
2023-08-16T05:58:05.264Z,35.47
2023-08-16T06:00:35.311Z,35.37
2023-08-16T06:03:02.837Z,35.95
2023-08-16T06:05:29.801Z,36.22
2023-08-16T06:07:56.912Z,36.46
2023-08-16T06:13:16.867Z,37.41
2023-08-16T06:15:43.634Z,37.97
2023-08-16T06:18:10.343Z,38.06
2023-08-16T06:20:38.555Z,38.39
2023-08-16T06:23:05.557Z,38.35
2023-08-16T06:25:34.832Z,38.63
2023-08-16T06:28:02.958Z,38.75
2023-08-16T06:30:29.953Z,38.02
2023-08-16T06:32:56.904Z,38.31
2023-08-16T06:35:24.729Z,38.25
2023-08-16T06:37:53.208Z,37.40
2023-08-16T06:40:20.165Z,36.86
2023-08-16T06:42:47.086Z,36.75
2023-08-16T06:45:13.792Z,37.06
2023-08-16T06:47:41.433Z,36.58
2023-08-16T06:50:08.404Z,36.09
2023-08-16T06:52:35.362Z,35.96
2023-08-16T06:55:02.242Z,36.12
2023-08-16T06:57:34.143Z,36.04
2023-08-16T07:00:01.756Z,36.40
2023-08-16T07:02:31.106Z,36.47
2023-08-16T07:04:58.512Z,36.32
2023-08-16T07:10:18.947Z,35.72
2023-08-16T07:12:47.647Z,35.55
2023-08-16T07:15:15.572Z,35.55
2023-08-16T07:17:42.863Z,35.78
2023-08-16T07:20:10.788Z,35.82
2023-08-16T07:22:37.700Z,35.59
2023-08-16T07:25:04.462Z,35.59
2023-08-16T07:27:31.464Z,35.69
2023-08-16T07:29:58.294Z,36.03
2023-08-16T07:32:25.314Z,35.96
2023-08-16T07:34:52.143Z,36.41
2023-08-16T07:37:19.183Z,36.22
2023-08-16T07:39:45.795Z,36.05
2023-08-16T07:42:14.791Z,36.09
2023-08-16T07:44:41.691Z,35.28
2023-08-16T07:47:08.994Z,35.12
2023-08-16T07:49:37.945Z,34.87
2023-08-16T07:52:04.675Z,34.47
2023-08-16T07:54:36.020Z,33.81
2023-08-16T07:57:03.089Z,33.42
2023-08-16T07:59:29.862Z,33.35
2023-08-16T08:01:56.792Z,31.96
2023-08-16T08:04:23.794Z,32.07
2023-08-16T08:06:50.746Z,32.30
2023-08-16T08:12:02.279Z,31.44
2023-08-16T08:14:30.666Z,31.83
2023-08-16T08:16:58.313Z,31.69
2023-08-16T08:19:25.017Z,31.13
2023-08-16T08:21:52.749Z,31.29
2023-08-16T08:26:53.134Z,31.04
2023-08-16T08:29:19.859Z,30.81
2023-08-16T08:31:51.874Z,30.99
2023-08-16T08:34:18.805Z,30.81
2023-08-16T08:36:45.740Z,30.62
2023-08-16T08:39:12.409Z,30.66
2023-08-16T08:41:47.944Z,30.56
2023-08-16T08:44:15.240Z,30.12
2023-08-16T08:46:42.192Z,29.86
2023-08-16T08:49:09.044Z,30.28
2023-08-16T08:51:36.797Z,29.91
2023-08-16T08:54:03.712Z,30.25
2023-08-16T08:56:31.697Z,30.30
2023-08-16T08:59:12.969Z,30.51
2023-08-16T09:01:42.321Z,30.44
2023-08-16T09:04:09.434Z,30.05
2023-08-16T09:09:10.505Z,30.29
2023-08-16T09:11:37.226Z,30.26
2023-08-16T09:14:04.762Z,30.20
2023-08-16T09:16:42.109Z,30.18
2023-08-16T09:19:08.949Z,29.43
2023-08-16T09:21:35.811Z,29.62
2023-08-16T09:24:02.588Z,29.63
2023-08-16T09:26:31.323Z,30.13
2023-08-16T09:28:58.790Z,30.18
2023-08-16T09:31:26.041Z,29.66
2023-08-16T09:33:55.122Z,29.79
2023-08-16T09:36:24.085Z,29.61
2023-08-16T09:38:51.410Z,30.02
2023-08-16T09:41:18.098Z,29.95
2023-08-16T09:43:47.250Z,30.16
2023-08-16T09:46:15.263Z,30.14
2023-08-16T09:51:12.116Z,30.11
2023-08-16T09:53:41.341Z,30.10
2023-08-16T09:58:40.199Z,30.43
2023-08-16T10:03:36.514Z,30.34
2023-08-16T10:06:03.257Z,30.34
2023-08-16T10:08:29.950Z,29.99
2023-08-16T10:10:57.957Z,30.13
2023-08-16T10:13:25.657Z,30.17
2023-08-16T10:15:52.319Z,29.74
2023-08-16T10:18:19.570Z,30.00
2023-08-16T10:20:46.541Z,30.45
2023-08-16T10:23:13.507Z,29.94
2023-08-16T10:25:40.725Z,30.28
2023-08-16T10:28:07.652Z,30.66
2023-08-16T10:30:35.069Z,30.87
2023-08-16T10:33:04.156Z,30.96
2023-08-16T10:35:30.845Z,30.85
2023-08-16T10:37:59.831Z,30.86
2023-08-16T10:40:27.306Z,30.85
2023-08-16T10:42:54.287Z,30.69
2023-08-16T10:45:20.885Z,30.83
2023-08-16T10:47:47.878Z,31.26
2023-08-16T10:50:16.372Z,31.19
2023-08-16T10:52:45.100Z,30.87
2023-08-16T10:55:15.120Z,30.86
2023-08-16T10:57:45.519Z,30.36
2023-08-16T11:00:12.517Z,30.99
2023-08-16T11:02:39.361Z,30.97
2023-08-16T11:05:06.332Z,31.35
2023-08-16T11:07:35.641Z,31.52
2023-08-16T11:10:02.792Z,31.24
2023-08-16T11:12:30.547Z,31.49
2023-08-16T11:14:58.202Z,31.42
2023-08-16T11:17:25.427Z,31.89
2023-08-16T11:19:52.432Z,31.70
2023-08-16T11:22:19.579Z,31.72
2023-08-16T11:24:46.429Z,31.86
2023-08-16T11:27:13.861Z,32.01
2023-08-16T11:29:40.684Z,31.56
2023-08-16T11:32:07.978Z,31.11
2023-08-16T11:34:34.741Z,31.81
2023-08-16T11:37:01.769Z,32.43
2023-08-16T11:39:28.458Z,32.25
2023-08-16T11:41:56.543Z,32.61
2023-08-16T11:44:24.167Z,32.51
2023-08-16T11:46:51.121Z,32.54
2023-08-16T11:49:17.855Z,32.72
2023-08-16T11:51:44.735Z,32.79
2023-08-16T11:54:11.416Z,32.67
2023-08-16T11:59:53.635Z,33.23
2023-08-16T12:02:23.995Z,33.10
2023-08-16T12:04:50.831Z,33.30
2023-08-16T12:07:18.360Z,33.24
2023-08-16T12:09:47.122Z,33.29
2023-08-16T12:12:13.757Z,33.53
2023-08-16T12:14:42.774Z,33.21
2023-08-16T12:17:09.673Z,33.53
2023-08-16T12:19:38.269Z,33.15
2023-08-16T12:22:04.897Z,33.27
2023-08-16T12:24:33.846Z,33.32
2023-08-16T12:27:04.228Z,33.13
2023-08-16T12:29:33.147Z,33.17
2023-08-16T12:32:02.451Z,33.03
2023-08-16T12:34:29.455Z,32.65
2023-08-16T12:36:56.168Z,32.94
2023-08-16T12:39:23.692Z,32.88
2023-08-16T12:41:53.269Z,32.86
2023-08-16T12:44:20.367Z,32.74
2023-08-16T12:46:50.884Z,32.96
2023-08-16T12:49:17.949Z,32.57
2023-08-16T12:51:44.607Z,33.05
2023-08-16T12:54:11.317Z,33.07
2023-08-16T12:56:46.611Z,33.11
2023-08-16T13:02:36.916Z,33.21
2023-08-16T13:07:50.057Z,33.38
2023-08-16T13:15:26.149Z,33.07
2023-08-16T13:18:21.361Z,33.65
2023-08-16T13:23:12.396Z,33.56
2023-08-16T13:28:21.128Z,33.85
2023-08-16T13:30:50.201Z,33.54
2023-08-16T13:33:44.357Z,33.51
2023-08-16T13:36:23.275Z,33.57
2023-08-16T13:38:50.461Z,33.53
2023-08-16T13:41:24.868Z,33.53
2023-08-16T13:44:23.307Z,33.37
2023-08-16T13:46:39.001Z,33.37
2023-08-16T13:49:06.557Z,33.49
2023-08-16T13:51:33.551Z,33.09
2023-08-16T13:54:00.599Z,33.14
2023-08-16T13:56:32.421Z,33.47
2023-08-16T13:59:06.497Z,33.60
2023-08-16T14:02:01.134Z,33.10
2023-08-16T14:04:28.076Z,33.48
2023-08-16T14:06:56.601Z,34.01
2023-08-16T14:09:23.947Z,33.65
2023-08-16T14:11:51.606Z,33.79
2023-08-16T14:14:19.172Z,33.59
2023-08-16T14:16:55.317Z,33.80
2023-08-16T14:19:22.145Z,33.42
2023-08-16T14:21:50.318Z,33.61
2023-08-16T14:24:17.498Z,34.09
2023-08-16T14:26:44.371Z,33.90
2023-08-16T14:29:11.170Z,33.92
2023-08-16T14:31:38.139Z,34.06
2023-08-16T14:34:05.337Z,34.01
2023-08-16T14:36:32.268Z,33.48
2023-08-16T14:39:00.822Z,33.79
2023-08-16T14:41:27.951Z,34.09
2023-08-16T14:43:56.807Z,34.30
2023-08-16T14:46:24.697Z,34.44
2023-08-16T14:48:52.271Z,34.18
2023-08-16T14:51:20.301Z,34.37
2023-08-16T14:53:47.142Z,34.51
2023-08-16T14:56:14.153Z,34.52
2023-08-16T14:58:41.935Z,34.54
2023-08-16T15:01:08.980Z,33.98
2023-08-16T15:03:36.666Z,34.19
2023-08-16T15:06:03.475Z,33.77
2023-08-16T15:08:33.273Z,34.02
2023-08-16T15:11:00.719Z,34.10
2023-08-16T15:13:27.374Z,34.14
2023-08-16T15:15:54.070Z,34.13
2023-08-16T15:18:21.697Z,34.40
2023-08-16T15:26:41.579Z,34.35
2023-08-16T15:32:04.550Z,34.61
2023-08-16T15:34:32.277Z,34.77
2023-08-16T15:36:59.334Z,34.52
2023-08-16T15:39:26.040Z,34.46
2023-08-16T15:41:52.953Z,34.55
2023-08-16T15:44:20.449Z,33.88
2023-08-16T15:46:47.591Z,34.30
2023-08-16T15:49:14.486Z,34.21
2023-08-16T15:51:41.928Z,34.41
2023-08-16T15:54:11.073Z,34.35
2023-08-16T15:56:37.696Z,34.19
2023-08-16T15:59:04.347Z,34.14
2023-08-16T16:01:31.097Z,34.42
2023-08-16T16:03:57.863Z,34.25
2023-08-16T16:12:39.953Z,34.18
2023-08-16T16:15:12.491Z,34.08
2023-08-16T16:17:39.461Z,34.13
2023-08-16T16:20:06.424Z,34.31
2023-08-16T16:22:33.376Z,34.04
2023-08-16T16:25:00.899Z,33.73
2023-08-16T16:27:28.149Z,33.99
2023-08-16T16:29:56.280Z,33.77
2023-08-16T16:32:25.137Z,33.75
2023-08-16T16:34:56.325Z,33.73
2023-08-16T16:40:34.658Z,33.94
2023-08-16T16:45:54.986Z,33.58
2023-08-16T16:48:27.984Z,33.82
2023-08-16T16:50:57.087Z,33.55
2023-08-16T16:53:24.303Z,33.56
2023-08-16T16:56:05.970Z,33.76
2023-08-16T16:58:36.496Z,33.62
2023-08-16T17:01:06.612Z,33.56
2023-08-16T17:03:35.630Z,33.65
2023-08-16T17:06:07.381Z,33.75
2023-08-16T17:12:30.139Z,33.47
2023-08-16T17:14:17.892Z,33.60
2023-08-16T17:17:23.529Z,33.47
2023-08-16T17:19:37.298Z,33.68
2023-08-16T17:22:56.897Z,33.80
2023-08-16T17:24:57.717Z,33.53
2023-08-16T17:27:36.473Z,33.61
2023-08-16T17:33:20.248Z,33.30
2023-08-16T17:35:57.826Z,33.40
2023-08-16T17:38:43.658Z,33.37
2023-08-16T17:41:12.493Z,33.30
2023-08-16T17:43:41.059Z,33.24
2023-08-16T17:46:08.051Z,32.69
2023-08-16T17:48:35.843Z,32.67
2023-08-16T17:51:02.943Z,32.15
2023-08-16T17:53:29.593Z,32.00
2023-08-16T17:55:56.493Z,32.22
2023-08-16T17:58:23.338Z,32.32
2023-08-16T18:00:52.633Z,32.30
2023-08-16T18:03:21.069Z,32.53
2023-08-16T18:05:48.688Z,32.33
2023-08-16T18:08:15.514Z,32.45
2023-08-16T18:10:42.034Z,32.67
2023-08-16T18:13:08.862Z,32.49
2023-08-16T18:15:35.852Z,32.00
2023-08-16T18:18:02.583Z,31.93
2023-08-16T18:20:29.745Z,31.73
2023-08-16T18:22:56.952Z,31.72
2023-08-16T18:25:24.014Z,31.58
2023-08-16T18:27:50.808Z,31.14
2023-08-16T18:30:18.536Z,31.26
2023-08-16T18:32:45.196Z,31.58
2023-08-16T18:35:12.014Z,32.01
2023-08-16T18:37:39.825Z,31.91
2023-08-16T18:40:08.023Z,31.79
2023-08-16T18:42:35.061Z,31.41
2023-08-16T18:45:01.698Z,30.99
2023-08-16T18:47:29.438Z,31.13
2023-08-16T18:49:56.217Z,31.14
2023-08-16T18:52:26.446Z,30.78
2023-08-16T18:54:53.335Z,31.23
2023-08-16T18:57:19.837Z,31.56
2023-08-16T18:59:46.409Z,31.00
2023-08-16T19:02:14.006Z,31.12
2023-08-16T19:04:40.698Z,31.48
2023-08-16T19:07:07.441Z,31.18
2023-08-16T19:09:34.969Z,31.84
2023-08-16T19:12:01.582Z,30.78
2023-08-16T19:14:28.215Z,30.04
2023-08-16T19:16:55.002Z,29.83
2023-08-16T19:19:21.650Z,29.96
2023-08-16T19:21:48.340Z,30.52
2023-08-16T19:24:15.057Z,30.25
2023-08-16T19:26:41.650Z,30.41
2023-08-16T19:29:08.358Z,30.66
2023-08-16T19:31:34.912Z,31.03
2023-08-16T19:34:01.654Z,30.78
2023-08-16T19:36:28.170Z,30.63
2023-08-16T19:38:56.097Z,30.25
2023-08-16T19:41:23.129Z,30.38
2023-08-16T19:43:50.835Z,30.63
2023-08-16T19:46:18.164Z,30.70
2023-08-16T19:48:45.336Z,30.54
2023-08-16T19:51:12.139Z,30.45
2023-08-16T19:53:38.871Z,30.58
2023-08-16T19:56:05.550Z,30.80
2023-08-16T19:58:32.509Z,31.34
2023-08-16T20:00:59.206Z,31.49
2023-08-16T20:03:25.988Z,31.58
2023-08-16T20:05:52.736Z,31.51
2023-08-16T20:08:19.706Z,31.67
2023-08-16T20:10:46.545Z,31.71
2023-08-16T20:13:13.176Z,31.70
2023-08-16T20:15:39.754Z,31.60
2023-08-16T20:18:06.771Z,31.63
2023-08-16T20:20:33.340Z,31.63
2023-08-16T20:23:02.621Z,31.29
2023-08-16T20:25:30.216Z,31.32
2023-08-16T20:28:00.275Z,31.45
2023-08-16T20:30:27.139Z,31.41
2023-08-16T20:32:53.823Z,30.96
2023-08-16T20:35:20.565Z,31.01
2023-08-16T20:37:47.232Z,30.85
2023-08-16T20:40:14.122Z,31.19
2023-08-16T20:42:40.795Z,30.54
2023-08-16T20:45:07.536Z,29.62
2023-08-16T20:47:35.065Z,30.48
2023-08-16T20:50:02.265Z,29.55
2023-08-16T20:52:28.878Z,29.61
2023-08-16T20:54:55.508Z,29.02
2023-08-16T20:57:22.140Z,28.54
2023-08-16T20:59:48.782Z,29.07
2023-08-16T21:02:15.396Z,29.13
2023-08-16T21:04:41.946Z,29.17
2023-08-16T21:07:08.886Z,29.39
2023-08-16T21:09:35.412Z,29.16
2023-08-16T21:12:05.517Z,28.97
2023-08-16T21:14:32.493Z,29.36
2023-08-16T21:17:00.085Z,29.56
2023-08-16T21:19:30.220Z,30.04
2023-08-16T21:21:59.506Z,30.45
2023-08-16T21:24:26.372Z,30.68
2023-08-16T21:26:53.334Z,30.77
2023-08-16T21:29:20.052Z,30.84
2023-08-16T21:31:46.670Z,30.77
2023-08-16T21:34:13.341Z,30.67
2023-08-16T21:36:40.199Z,30.36
2023-08-16T21:39:09.220Z,30.27
2023-08-16T21:41:35.768Z,29.55
2023-08-16T21:44:03.055Z,29.22
2023-08-16T21:46:29.718Z,29.18
2023-08-16T21:48:56.723Z,28.87
2023-08-16T21:51:24.745Z,29.22
2023-08-16T21:53:52.628Z,29.75
2023-08-16T21:56:19.158Z,29.80
2023-08-16T21:58:46.109Z,29.57
2023-08-16T22:01:13.075Z,29.67
2023-08-16T22:03:39.790Z,29.87
2023-08-16T22:06:11.584Z,29.22
2023-08-16T22:08:38.582Z,29.52
2023-08-16T22:11:06.453Z,29.86
2023-08-16T22:13:33.128Z,29.83
2023-08-16T22:16:00.574Z,29.94
2023-08-16T22:18:33.120Z,29.99
2023-08-16T22:21:03.842Z,29.97
2023-08-16T22:23:32.835Z,29.19
2023-08-16T22:26:01.263Z,29.51
2023-08-16T22:31:12.878Z,29.78
2023-08-16T22:33:40.355Z,29.61
2023-08-16T22:36:09.152Z,29.41
2023-08-16T22:38:35.984Z,28.84
2023-08-16T22:41:04.816Z,28.52
2023-08-16T22:43:31.860Z,29.12
2023-08-16T22:45:58.706Z,29.14
2023-08-16T22:48:25.563Z,28.79
2023-08-16T22:50:55.310Z,28.73
2023-08-16T22:53:21.970Z,28.59
2023-08-16T22:55:48.829Z,28.73
2023-08-16T22:58:16.448Z,29.13
2023-08-16T23:00:43.634Z,28.78
2023-08-16T23:03:11.177Z,27.81
2023-08-16T23:05:39.169Z,27.63
2023-08-16T23:08:05.717Z,27.73
2023-08-16T23:10:33.956Z,27.22
2023-08-16T23:13:00.936Z,27.39
2023-08-16T23:15:28.978Z,27.75
2023-08-16T23:17:55.928Z,27.47
2023-08-16T23:20:23.909Z,26.88
2023-08-16T23:22:52.652Z,26.70
2023-08-16T23:25:20.835Z,26.58
2023-08-16T23:27:49.201Z,26.34
2023-08-16T23:30:16.573Z,26.41
2023-08-16T23:32:45.613Z,26.70
2023-08-16T23:35:12.230Z,26.84
2023-08-16T23:37:39.131Z,26.90
2023-08-16T23:40:06.199Z,27.08
2023-08-16T23:42:33.721Z,27.53
2023-08-16T23:45:07.411Z,27.76
2023-08-16T23:47:35.869Z,28.44
2023-08-16T23:50:03.477Z,28.45
2023-08-16T23:52:31.918Z,28.23
2023-08-16T23:54:58.718Z,27.84
2023-08-16T23:57:26.341Z,27.62
2023-08-16T23:59:53.107Z,27.15
